createdAt,value
2018-08-17T00:02:07.234Z,31.82
2018-08-17T00:04:39.277Z,31.82
2018-08-17T00:07:11.323Z,31.80
2018-08-17T00:09:43.290Z,31.77
2018-08-17T00:12:15.408Z,31.80
2018-08-17T00:14:47.058Z,31.78
2018-08-17T00:17:19.149Z,31.79
2018-08-17T00:19:50.579Z,31.78
2018-08-17T00:22:22.465Z,31.77
2018-08-17T00:24:54.519Z,31.79
2018-08-17T00:27:26.580Z,31.79
2018-08-17T00:29:58.232Z,31.78
2018-08-17T00:32:29.862Z,31.78
2018-08-17T00:35:01.581Z,31.78
2018-08-17T00:37:33.566Z,31.76
2018-08-17T00:40:05.321Z,31.78
2018-08-17T00:42:37.385Z,31.74
2018-08-17T00:45:09.286Z,31.73
2018-08-17T00:47:40.965Z,31.70
2018-08-17T00:50:12.864Z,31.69
2018-08-17T00:52:44.610Z,31.73
2018-08-17T00:55:16.599Z,31.75
2018-08-17T00:57:48.337Z,31.75
2018-08-17T01:00:19.847Z,31.74
2018-08-17T01:02:51.729Z,31.74
2018-08-17T01:05:23.344Z,31.72
2018-08-17T01:07:55.199Z,31.73
2018-08-17T01:10:26.905Z,31.75
2018-08-17T01:12:58.942Z,31.74
2018-08-17T01:15:30.774Z,31.74
2018-08-17T01:18:02.886Z,31.72
2018-08-17T01:20:34.946Z,31.72
2018-08-17T01:23:07.196Z,31.72
2018-08-17T01:25:39.288Z,31.73
2018-08-17T01:28:11.545Z,31.74
2018-08-17T01:30:43.542Z,31.73
2018-08-17T01:33:15.470Z,31.71
2018-08-17T01:35:47.300Z,31.73
2018-08-17T01:38:19.171Z,31.69
2018-08-17T01:40:51.238Z,31.70
2018-08-17T01:43:23.582Z,31.67
2018-08-17T01:45:55.330Z,31.68
2018-08-17T01:48:27.204Z,31.71
2018-08-17T01:50:58.960Z,31.58
2018-08-17T01:53:32.662Z,31.64
2018-08-17T01:56:04.442Z,31.64
2018-08-17T01:58:36.222Z,31.64
2018-08-17T02:01:07.961Z,31.66
2018-08-17T02:03:39.632Z,31.69
2018-08-17T02:06:11.561Z,31.68
2018-08-17T02:08:43.300Z,31.66
2018-08-17T02:11:15.058Z,31.67
2018-08-17T02:13:49.489Z,31.68
2018-08-17T02:16:24.386Z,31.67
2018-08-17T02:18:56.303Z,31.70
2018-08-17T02:21:28.170Z,31.69
2018-08-17T02:23:59.987Z,31.68
2018-08-17T02:26:35.519Z,31.70
2018-08-17T02:29:07.398Z,31.71
2018-08-17T02:31:40.230Z,31.71
2018-08-17T02:34:11.908Z,31.71
2018-08-17T02:36:43.603Z,31.73
2018-08-17T02:39:15.262Z,31.73
2018-08-17T02:41:48.397Z,31.74
2018-08-17T02:44:20.174Z,31.74
2018-08-17T02:46:52.803Z,31.74
2018-08-17T02:49:24.474Z,31.75
2018-08-17T02:52:06.728Z,31.74
2018-08-17T02:54:38.831Z,31.76
2018-08-17T02:57:10.607Z,31.77
2018-08-17T02:59:42.557Z,31.77
2018-08-17T03:02:14.419Z,31.78
2018-08-17T03:04:46.463Z,31.78
2018-08-17T03:07:17.958Z,31.80
2018-08-17T03:09:49.984Z,31.79
2018-08-17T03:12:21.448Z,31.77
2018-08-17T03:14:53.271Z,31.79
2018-08-17T03:17:24.938Z,31.82
2018-08-17T03:19:56.954Z,31.81
2018-08-17T03:22:28.810Z,31.82
2018-08-17T03:25:00.781Z,31.81
2018-08-17T03:27:32.573Z,31.81
2018-08-17T03:30:04.677Z,31.82
2018-08-17T03:32:36.322Z,31.79
2018-08-17T03:35:08.410Z,31.77
2018-08-17T03:37:40.171Z,31.81
2018-08-17T03:40:12.133Z,31.77
2018-08-17T03:42:43.937Z,31.80
2018-08-17T03:45:15.648Z,31.82
2018-08-17T03:47:47.488Z,31.82
2018-08-17T03:50:19.533Z,31.79
2018-08-17T03:52:51.270Z,31.83
2018-08-17T03:55:23.285Z,31.83
2018-08-17T03:57:55.063Z,31.83
2018-08-17T04:00:27.253Z,31.83
2018-08-17T04:02:59.255Z,31.85
2018-08-17T04:05:31.088Z,31.86
2018-08-17T04:08:02.668Z,31.87
2018-08-17T04:10:34.577Z,31.87
2018-08-17T04:13:06.467Z,31.89
2018-08-17T04:15:38.407Z,31.90
2018-08-17T04:18:10.744Z,31.90
2018-08-17T04:20:42.492Z,31.90
2018-08-17T04:23:14.278Z,31.89
2018-08-17T04:25:46.760Z,31.92
2018-08-17T04:28:18.427Z,31.90
2018-08-17T04:30:50.821Z,31.90
2018-08-17T04:33:22.821Z,31.92
2018-08-17T04:35:54.524Z,31.93
2018-08-17T04:38:26.494Z,31.93
2018-08-17T04:40:58.261Z,31.93
2018-08-17T04:43:30.037Z,31.72
2018-08-17T04:46:02.932Z,31.71
2018-08-17T04:48:35.117Z,31.72
2018-08-17T04:51:06.759Z,31.66
2018-08-17T04:53:38.523Z,31.68
2018-08-17T04:56:10.308Z,31.62
2018-08-17T04:58:42.025Z,31.54
2018-08-17T05:01:14.089Z,31.62
2018-08-17T05:03:45.737Z,31.64
2018-08-17T05:06:17.931Z,31.67
2018-08-17T05:08:49.775Z,31.66
2018-08-17T05:11:21.707Z,31.67
2018-08-17T05:13:53.573Z,31.67
2018-08-17T05:16:25.284Z,31.69
2018-08-17T05:18:57.135Z,31.69
2018-08-17T05:21:28.977Z,31.71
2018-08-17T05:24:01.068Z,31.71
2018-08-17T05:26:32.855Z,31.71
2018-08-17T05:29:04.493Z,31.73
2018-08-17T05:31:36.602Z,31.72
2018-08-17T05:34:08.486Z,31.73
2018-08-17T05:36:40.266Z,31.72
2018-08-17T05:39:12.027Z,31.72
2018-08-17T05:41:43.817Z,31.74
2018-08-17T05:44:15.707Z,31.74
2018-08-17T05:46:48.465Z,31.74
2018-08-17T05:49:20.306Z,31.73
2018-08-17T05:51:51.861Z,31.73
2018-08-17T05:54:23.339Z,31.75
2018-08-17T05:56:55.143Z,31.75
2018-08-17T05:59:26.717Z,31.75
2018-08-17T06:01:58.767Z,31.75
2018-08-17T06:04:30.880Z,31.75
2018-08-17T06:07:02.689Z,31.78
2018-08-17T06:09:35.066Z,31.77
2018-08-17T06:12:06.830Z,31.78
2018-08-17T06:14:38.424Z,31.79
2018-08-17T06:17:10.273Z,31.79
2018-08-17T06:19:41.857Z,31.79
2018-08-17T06:22:18.320Z,31.80
2018-08-17T06:24:51.338Z,31.79
2018-08-17T06:27:23.267Z,31.80
2018-08-17T06:29:55.035Z,31.81
2018-08-17T06:32:26.855Z,31.79
2018-08-17T06:34:58.740Z,31.81
2018-08-17T06:37:30.937Z,31.82
2018-08-17T06:40:03.027Z,31.80
2018-08-17T06:42:34.804Z,31.80
2018-08-17T06:45:07.641Z,31.82
2018-08-17T06:47:40.064Z,31.82
2018-08-17T06:50:12.605Z,31.82
2018-08-17T06:52:44.580Z,31.83
2018-08-17T06:55:16.315Z,31.82
2018-08-17T06:57:48.769Z,31.85
2018-08-17T07:00:20.625Z,31.86
2018-08-17T07:02:52.777Z,31.86
2018-08-17T07:05:24.345Z,31.86
2018-08-17T07:07:56.808Z,31.87
2018-08-17T07:10:28.685Z,31.89
2018-08-17T07:13:00.389Z,31.87
2018-08-17T07:15:32.144Z,31.86
2018-08-17T07:18:04.108Z,31.86
2018-08-17T07:20:36.107Z,31.85
2018-08-17T07:23:08.143Z,31.87
2018-08-17T07:25:40.141Z,31.87
2018-08-17T07:28:12.343Z,31.86
2018-08-17T07:30:44.006Z,31.89
2018-08-17T07:33:16.007Z,31.91
2018-08-17T07:35:47.867Z,31.91
2018-08-17T07:38:19.950Z,31.92
2018-08-17T07:40:51.962Z,31.92
2018-08-17T07:43:23.858Z,31.93
2018-08-17T07:45:55.770Z,31.94
2018-08-17T07:48:27.601Z,31.94
2018-08-17T07:50:59.444Z,31.94
2018-08-17T07:53:31.498Z,31.94
2018-08-17T07:56:03.375Z,31.94
2018-08-17T07:58:35.809Z,31.95
2018-08-17T08:01:07.963Z,31.93
2018-08-17T08:03:39.892Z,31.94
2018-08-17T08:06:11.640Z,31.95
2018-08-17T08:08:43.589Z,31.96
2018-08-17T08:11:15.188Z,31.96
2018-08-17T08:13:47.085Z,31.97
2018-08-17T08:16:19.176Z,31.98
2018-08-17T08:18:51.012Z,31.98
2018-08-17T08:21:22.509Z,31.99
2018-08-17T08:23:54.273Z,31.99
2018-08-17T08:26:25.819Z,32.01
2018-08-17T08:28:57.642Z,32.00
2018-08-17T08:31:29.753Z,32.00
2018-08-17T08:34:01.591Z,32.01
2018-08-17T08:36:33.477Z,32.01
2018-08-17T08:39:05.984Z,32.03
2018-08-17T08:41:37.587Z,32.02
2018-08-17T08:44:09.772Z,32.01
2018-08-17T08:46:41.517Z,32.01
2018-08-17T08:49:13.354Z,32.03
2018-08-17T08:51:45.167Z,32.03
2018-08-17T08:54:17.040Z,32.02
2018-08-17T08:56:48.754Z,32.03
2018-08-17T08:59:20.407Z,32.04
2018-08-17T09:01:52.238Z,32.04
2018-08-17T09:04:24.260Z,32.05
2018-08-17T09:06:55.919Z,32.07
2018-08-17T09:09:28.030Z,32.08
2018-08-17T09:11:59.821Z,32.07
2018-08-17T09:14:31.885Z,32.09
2018-08-17T09:17:03.803Z,32.10
2018-08-17T09:19:35.757Z,32.09
2018-08-17T09:22:07.746Z,32.10
2018-08-17T09:24:39.901Z,32.09
2018-08-17T09:27:11.899Z,32.10
2018-08-17T09:29:43.990Z,32.11
2018-08-17T09:32:15.683Z,32.11
2018-08-17T09:34:47.609Z,32.11
2018-08-17T09:37:19.672Z,32.12
2018-08-17T09:39:51.439Z,32.11
2018-08-17T09:42:23.125Z,32.12
2018-08-17T09:44:55.653Z,32.14
2018-08-17T09:47:27.123Z,32.15
2018-08-17T09:49:59.156Z,32.16
2018-08-17T09:52:30.971Z,32.17
2018-08-17T09:55:03.171Z,32.17
2018-08-17T09:57:34.869Z,32.18
2018-08-17T10:00:07.181Z,32.15
2018-08-17T10:02:43.338Z,32.21
2018-08-17T10:05:19.422Z,32.20
2018-08-17T10:07:55.778Z,32.22
2018-08-17T10:10:27.539Z,32.22
2018-08-17T10:12:59.399Z,32.22
2018-08-17T10:15:31.168Z,32.23
2018-08-17T10:18:02.632Z,32.24
2018-08-17T10:20:34.706Z,32.25
2018-08-17T10:23:13.945Z,32.25
2018-08-17T10:25:45.979Z,32.27
2018-08-17T10:28:17.880Z,32.27
2018-08-17T10:30:50.439Z,32.28
2018-08-17T10:33:21.889Z,32.29
2018-08-17T10:35:53.855Z,32.30
2018-08-17T10:38:26.895Z,32.32
2018-08-17T10:40:58.708Z,32.33
2018-08-17T10:43:30.393Z,32.34
2018-08-17T10:46:02.188Z,32.34
2018-08-17T10:48:33.801Z,32.35
2018-08-17T10:51:05.717Z,32.36
2018-08-17T10:53:43.067Z,32.36
2018-08-17T10:56:14.774Z,32.37
2018-08-17T10:58:47.038Z,32.38
2018-08-17T11:01:18.848Z,32.38
2018-08-17T11:03:50.502Z,32.39
2018-08-17T11:06:22.439Z,32.39
2018-08-17T11:08:54.084Z,32.41
2018-08-17T11:11:25.887Z,32.42
2018-08-17T11:13:57.597Z,32.40
2018-08-17T11:16:29.853Z,32.42
2018-08-17T11:19:02.436Z,32.43
2018-08-17T11:21:35.622Z,32.43
2018-08-17T11:24:07.366Z,32.45
2018-08-17T11:26:39.884Z,32.47
2018-08-17T11:29:11.651Z,32.48
2018-08-17T11:31:43.580Z,32.47
2018-08-17T11:34:15.189Z,32.48
2018-08-17T11:36:47.071Z,32.49
2018-08-17T11:39:18.807Z,32.51
2018-08-17T11:41:50.633Z,32.52
2018-08-17T11:44:22.415Z,32.51
2018-08-17T11:46:54.873Z,32.51
2018-08-17T11:49:29.357Z,32.52
2018-08-17T11:52:01.059Z,32.53
2018-08-17T11:54:32.769Z,32.55
2018-08-17T11:57:04.626Z,32.54
2018-08-17T11:59:36.612Z,32.56
2018-08-17T12:02:08.577Z,32.57
2018-08-17T12:04:40.340Z,32.57
2018-08-17T12:07:12.414Z,32.58
2018-08-17T12:10:05.207Z,32.60
2018-08-17T12:12:38.149Z,32.61
2018-08-17T12:15:11.329Z,32.62
2018-08-17T12:17:43.500Z,32.63
2018-08-17T12:20:15.240Z,32.63
2018-08-17T12:22:47.424Z,32.66
2018-08-17T12:25:19.323Z,32.65
2018-08-17T12:28:00.173Z,32.66
2018-08-17T12:30:32.115Z,32.66
2018-08-17T12:33:04.006Z,32.67
2018-08-17T12:35:35.514Z,32.68
2018-08-17T12:38:11.811Z,32.67
2018-08-17T12:41:02.205Z,32.67
2018-08-17T12:43:36.961Z,32.67
2018-08-17T12:46:08.678Z,32.68
2018-08-17T12:48:40.549Z,32.70
2018-08-17T12:51:12.372Z,32.70
2018-08-17T12:53:43.996Z,32.70
2018-08-17T12:56:15.694Z,32.70
2018-08-17T12:58:47.523Z,32.70
2018-08-17T13:01:19.169Z,32.73
2018-08-17T13:03:51.023Z,32.73
2018-08-17T13:06:22.676Z,32.73
2018-08-17T13:08:54.524Z,32.75
2018-08-17T13:11:26.267Z,32.73
2018-08-17T13:14:02.821Z,32.73
2018-08-17T13:16:35.185Z,32.76
2018-08-17T13:19:06.895Z,32.75
2018-08-17T13:21:38.797Z,32.75
2018-08-17T13:24:11.310Z,32.76
2018-08-17T13:26:42.822Z,32.76
2018-08-17T13:29:14.706Z,32.76
2018-08-17T13:31:46.464Z,32.75
2018-08-17T13:34:18.320Z,32.76
2018-08-17T13:36:50.074Z,32.76
2018-08-17T13:39:22.146Z,32.78
2018-08-17T13:41:53.860Z,32.79
2018-08-17T13:44:25.555Z,32.79
2018-08-17T13:46:57.380Z,32.79
2018-08-17T13:49:29.364Z,32.79
2018-08-17T13:52:02.136Z,32.80
2018-08-17T13:54:33.921Z,32.80
2018-08-17T13:57:05.847Z,32.80
2018-08-17T13:59:37.762Z,32.80
2018-08-17T14:02:09.560Z,32.82
2018-08-17T14:04:41.431Z,32.81
2018-08-17T14:07:13.325Z,32.82
2018-08-17T14:09:45.160Z,32.81
2018-08-17T14:12:17.464Z,32.79
2018-08-17T14:14:49.193Z,32.83
2018-08-17T14:17:21.003Z,32.83
2018-08-17T14:19:52.843Z,32.84
2018-08-17T14:22:24.633Z,32.84
2018-08-17T14:24:56.658Z,32.83
2018-08-17T14:27:28.481Z,32.85
2018-08-17T14:30:00.287Z,32.86
2018-08-17T14:32:32.174Z,32.88
2018-08-17T14:35:03.986Z,32.88
2018-08-17T14:37:35.623Z,32.87
2018-08-17T14:40:07.864Z,32.88
2018-08-17T14:42:39.979Z,32.88
2018-08-17T14:45:12.289Z,32.87
2018-08-17T14:47:44.187Z,32.88
2018-08-17T14:50:16.890Z,32.88
2018-08-17T14:52:48.740Z,32.89
2018-08-17T14:55:20.810Z,32.88
2018-08-17T14:57:52.797Z,32.90
2018-08-17T15:00:24.837Z,32.89
2018-08-17T15:02:56.580Z,32.89
2018-08-17T15:05:28.439Z,32.88
2018-08-17T15:08:00.268Z,32.90
2018-08-17T15:10:32.105Z,32.91
2018-08-17T15:13:03.873Z,32.92
2018-08-17T15:15:35.636Z,32.92
2018-08-17T15:18:07.420Z,32.93
2018-08-17T15:20:40.560Z,32.94
2018-08-17T15:23:12.656Z,32.94
2018-08-17T15:25:44.736Z,32.97
2018-08-17T15:28:16.585Z,32.94
2018-08-17T15:30:48.339Z,32.95
2018-08-17T15:33:20.070Z,32.95
2018-08-17T15:35:51.997Z,32.95
2018-08-17T15:38:23.760Z,32.95
2018-08-17T15:40:55.813Z,32.97
2018-08-17T15:43:27.564Z,32.95
2018-08-17T15:45:59.225Z,32.98
2018-08-17T15:48:39.346Z,32.97
2018-08-17T15:51:12.973Z,32.97
2018-08-17T15:53:44.773Z,32.98
2018-08-17T15:56:16.705Z,32.99
2018-08-17T15:58:48.473Z,33.00
2018-08-17T16:01:20.439Z,33.01
2018-08-17T16:03:52.215Z,32.99
2018-08-17T16:06:24.368Z,33.01
2018-08-17T16:08:56.377Z,33.01
2018-08-17T16:11:28.279Z,33.02
2018-08-17T16:14:00.084Z,33.02
2018-08-17T16:16:31.710Z,33.02
2018-08-17T16:19:04.302Z,33.02
2018-08-17T16:21:36.433Z,33.03
2018-08-17T16:24:08.310Z,33.02
2018-08-17T16:26:40.696Z,33.02
2018-08-17T16:29:12.518Z,33.01
2018-08-17T16:31:44.308Z,33.00
2018-08-17T16:34:16.206Z,33.01
2018-08-17T16:36:48.119Z,33.01
2018-08-17T16:39:19.875Z,33.01
2018-08-17T16:41:51.783Z,33.02
2018-08-17T16:44:23.335Z,33.03
2018-08-17T16:46:55.068Z,33.04
2018-08-17T16:49:26.754Z,33.03
2018-08-17T16:51:58.590Z,33.05
2018-08-17T16:54:30.253Z,33.04
2018-08-17T16:57:01.896Z,33.04
2018-08-17T16:59:33.657Z,33.04
2018-08-17T17:02:05.369Z,33.05
2018-08-17T17:04:43.077Z,33.05
2018-08-17T17:07:15.019Z,33.06
2018-08-17T17:09:46.712Z,33.07
2018-08-17T17:12:20.929Z,33.07
2018-08-17T17:14:53.783Z,33.05
2018-08-17T17:17:25.820Z,33.04
2018-08-17T17:19:57.505Z,33.07
2018-08-17T17:22:29.609Z,33.05
2018-08-17T17:25:21.409Z,33.06
2018-08-17T17:27:53.301Z,33.08
2018-08-17T17:30:25.262Z,33.06
2018-08-17T17:32:57.049Z,33.05
2018-08-17T17:35:28.974Z,33.07
2018-08-17T17:38:00.674Z,33.07
2018-08-17T17:40:32.403Z,33.07
2018-08-17T17:43:04.295Z,33.08
2018-08-17T17:45:36.245Z,33.08
2018-08-17T17:48:08.080Z,33.07
2018-08-17T17:50:39.814Z,33.07
2018-08-17T17:53:11.544Z,33.08
2018-08-17T17:55:47.801Z,33.08
2018-08-17T17:58:19.737Z,33.05
2018-08-17T18:00:58.729Z,33.08
2018-08-17T18:03:37.848Z,33.07
2018-08-17T18:06:09.976Z,33.06
2018-08-17T18:08:41.760Z,33.07
2018-08-17T18:11:13.376Z,33.08
2018-08-17T18:13:45.298Z,33.08
2018-08-17T18:16:18.120Z,33.08
2018-08-17T18:18:50.054Z,33.08
2018-08-17T18:21:21.618Z,33.09
2018-08-17T18:24:00.411Z,33.09
2018-08-17T18:26:32.224Z,33.08
2018-08-17T18:29:03.947Z,33.09
2018-08-17T18:31:35.868Z,33.08
2018-08-17T18:34:07.504Z,33.09
2018-08-17T18:36:39.137Z,33.09
2018-08-17T18:39:13.183Z,33.07
2018-08-17T18:41:45.107Z,33.09
2018-08-17T18:44:17.006Z,33.06
2018-08-17T18:46:48.728Z,33.08
2018-08-17T18:49:20.446Z,33.08
2018-08-17T18:51:52.114Z,33.07
2018-08-17T18:54:24.186Z,33.09
2018-08-17T18:56:56.144Z,33.09
2018-08-17T18:59:28.003Z,33.09
2018-08-17T19:01:59.879Z,33.10
2018-08-17T19:04:31.575Z,33.10
2018-08-17T19:07:03.148Z,33.10
2018-08-17T19:09:34.936Z,33.09
2018-08-17T19:12:06.780Z,33.07
2018-08-17T19:14:44.012Z,33.07
2018-08-17T19:17:20.909Z,33.08
2018-08-17T19:19:53.453Z,33.08
2018-08-17T19:22:24.936Z,33.08
2018-08-17T19:24:56.867Z,33.10
2018-08-17T19:27:35.712Z,33.09
2018-08-17T19:30:14.190Z,33.09
2018-08-17T19:32:45.930Z,33.09
2018-08-17T19:35:18.406Z,33.09
2018-08-17T19:37:50.789Z,33.09
2018-08-17T19:40:23.260Z,33.09
2018-08-17T19:42:54.971Z,33.09
2018-08-17T19:45:26.621Z,33.09
2018-08-17T19:47:58.312Z,33.08
2018-08-17T19:50:29.933Z,33.07
2018-08-17T19:53:01.707Z,33.08
2018-08-17T19:55:33.454Z,33.09
2018-08-17T19:58:05.375Z,33.09
2018-08-17T20:00:37.190Z,33.10
2018-08-17T20:03:08.861Z,33.11
2018-08-17T20:05:40.719Z,33.08
2018-08-17T20:08:12.564Z,33.10
2018-08-17T20:10:44.499Z,33.09
2018-08-17T20:13:16.542Z,33.09
2018-08-17T20:15:48.353Z,33.08
2018-08-17T20:18:21.021Z,33.08
2018-08-17T20:20:53.110Z,33.08
2018-08-17T20:23:24.723Z,33.08
2018-08-17T20:25:56.455Z,33.08
2018-08-17T20:28:31.677Z,33.10
2018-08-17T20:31:03.484Z,33.09
2018-08-17T20:33:35.438Z,33.09
2018-08-17T20:36:07.352Z,33.09
2018-08-17T20:38:38.994Z,33.08
2018-08-17T20:41:10.944Z,33.06
2018-08-17T20:43:42.674Z,33.07
2018-08-17T20:46:14.562Z,33.07
2018-08-17T20:48:51.706Z,33.05
2018-08-17T20:51:26.890Z,33.07
2018-08-17T20:54:01.388Z,33.08
2018-08-17T20:56:33.236Z,33.10
2018-08-17T20:59:04.978Z,33.05
2018-08-17T21:01:37.001Z,33.06
2018-08-17T21:04:08.616Z,33.06
2018-08-17T21:06:40.695Z,33.09
2018-08-17T21:09:12.324Z,33.10
2018-08-17T21:11:44.523Z,33.09
2018-08-17T21:14:16.316Z,33.08
2018-08-17T21:16:48.350Z,33.09
2018-08-17T21:19:28.583Z,33.09
2018-08-17T21:22:00.698Z,33.07
2018-08-17T21:24:32.363Z,33.05
2018-08-17T21:27:04.204Z,33.06
2018-08-17T21:29:35.870Z,33.05
2018-08-17T21:32:07.725Z,33.04
2018-08-17T21:34:39.368Z,33.03
2018-08-17T21:37:11.075Z,33.03
2018-08-17T21:39:42.897Z,33.03
2018-08-17T21:42:14.936Z,33.04
2018-08-17T21:44:46.558Z,33.03
2018-08-17T21:47:18.607Z,33.05
2018-08-17T21:49:50.279Z,33.05
2018-08-17T21:52:25.804Z,33.04
2018-08-17T21:54:57.777Z,33.04
2018-08-17T21:57:29.374Z,33.05
2018-08-17T22:00:00.931Z,33.06
2018-08-17T22:02:32.493Z,33.06
2018-08-17T22:05:04.553Z,33.05
2018-08-17T22:07:36.332Z,33.05
2018-08-17T22:10:08.521Z,33.05
2018-08-17T22:12:40.441Z,33.04
2018-08-17T22:15:12.186Z,33.04
2018-08-17T22:17:45.625Z,33.04
2018-08-17T22:20:17.135Z,33.02
2018-08-17T22:22:48.961Z,33.02
2018-08-17T22:25:20.528Z,33.03
2018-08-17T22:27:52.330Z,33.03
2018-08-17T22:30:26.292Z,33.02
2018-08-17T22:32:58.044Z,33.05
2018-08-17T22:35:30.079Z,33.04
2018-08-17T22:38:02.215Z,33.05
2018-08-17T22:40:33.873Z,33.05
2018-08-17T22:43:05.738Z,33.05
2018-08-17T22:45:37.455Z,33.04
2018-08-17T22:48:09.331Z,33.03
2018-08-17T22:50:40.803Z,33.03
2018-08-17T22:53:12.525Z,33.04
2018-08-17T22:55:43.975Z,33.02
2018-08-17T22:58:15.827Z,33.03
2018-08-17T23:00:47.861Z,33.01
2018-08-17T23:03:19.799Z,33.02
2018-08-17T23:05:51.514Z,33.02
2018-08-17T23:08:23.206Z,33.02
2018-08-17T23:10:54.963Z,32.98
2018-08-17T23:13:26.735Z,32.98
2018-08-17T23:15:59.149Z,32.98
2018-08-17T23:18:31.319Z,33.00
2018-08-17T23:21:02.944Z,33.00
2018-08-17T23:23:35.067Z,33.00
2018-08-17T23:26:06.507Z,33.01
2018-08-17T23:28:38.364Z,33.02
2018-08-17T23:31:09.775Z,33.01
2018-08-17T23:33:41.584Z,33.00
2018-08-17T23:36:13.155Z,32.99
2018-08-17T23:38:45.014Z,32.98
2018-08-17T23:41:16.526Z,32.97
2018-08-17T23:43:48.239Z,32.95
2018-08-17T23:46:19.715Z,32.95
2018-08-17T23:48:51.631Z,32.98
2018-08-17T23:51:23.063Z,32.98
2018-08-17T23:53:54.913Z,32.97
2018-08-17T23:56:26.532Z,32.94
2018-08-17T23:58:58.464Z,32.96
